Monterey Peninsula Airport
KMRY : rendu visible

Aérodrome :











RETROUVEZ-NOUS SUR...

 
LOGIN :

S'inscrire | Disclaimer

   EN    FR    IT 

 









Légende :    VFR   VFR Marginal   IFR   IFR Intensif   IFR Très Intensif
Visi : 
Plafond : 
>= 8 km
>= 3000ft
5 à 8 km
1000 à 3000 ft
1500m à 5 km
500 à 1000 ft
800 à 1500m
200 à 500 ft
< 800m
< 200 ft
Symboles :   Orages  Brouillard  Fortes neiges  Fortes précipitations  Vent > 20 kt






- Altitude de l'aérodrome : 257 ft
- Code IATA : MRY


KMRY - Monterey Peninsula

DERNIER METAR :
  • 011454Z VRB04KT 10SM BKN023 12/07 A3002 RMK AO2 SLP177 T01170072 53004

METARs EXPIRÉS :
  • 011354Z 31006KT 10SM BKN023 12/07 A3001 RMK AO2 SLP175 T01220067
  • 011254Z 29007KT 10SM BKN021 13/07 A3001 RMK AO2 SLP174 T01280067

TAF KMRY
Valide du 01 à 12h jusqu'au 02 à 12h UTC


011120Z 0112/0212 26007KT P6SM BKN015
TEMPO 0112/0116 SCT015
FM011600 27010KT P6SM FEW015
FM011900 30015G20KT P6SM FEW020
FM020200 30010G15KT P6SM FEW018
FM020500 26008KT P6SM FEW015



MET'MAP, la Météo Aéronautique d'un coup d'oeil ! - Copyright ORBIFLY Décembre 2007 - Disclaimer

ORBIFLY MET'MAP TEAM :

Programmation & Développement : Alexandra Zaïnal
Sur une idée originale de : Baudouin d'Aumeries
Assistance à la programmation : Marc-Olivier Méhu
Soutien technique & logistique : Manuel Goepfert

Contact : metmap@orbifly.com




SOURCES & CREDITS :

   NOAA       Earth
Advisory